Time;durP1;ratioP1;P1;durP2;ratioP2;P2;SDS_P1;SDS_P2;PMS_P1;PMS_P2;Temp;Humidity;BMP_temperature;BMP_pressure;BME280_temperature;BME280_humidity;BME280_pressure;Samples;Min_cycle;Max_cycle;Signal;HPM_P1;HPM_P2
2021/10/02 00:02:19;;;;;;;6.43;4.55;;;13.80;99.90;;;;;;5041714;28;20113;-62
2021/10/02 00:37:43;;;;;;;8.23;6.40;;;13.80;99.90;;;;;;5040631;28;20430;-62
2021/10/02 00:45:39;;;;;;;8.60;7.15;;;13.80;99.90;;;;;;5038121;28;20539;-63
2021/10/02 00:48:07;;;;;;;7.35;6.60;;;13.80;99.90;;;;;;5045727;28;20024;-62
2021/10/02 00:50:33;;;;;;;8.00;6.00;;;13.80;99.90;;;;;;5042367;28;20027;-62
2021/10/02 00:52:58;;;;;;;12.50;8.45;;;13.80;99.90;;;;;;5041806;28;20021;-62
2021/10/02 00:55:24;;;;;;;8.55;6.75;;;13.90;99.90;;;;;;5044221;28;20025;-63
2021/10/02 00:57:50;;;;;;;12.38;7.22;;;13.80;99.90;;;;;;5043038;28;20021;-62
2021/10/02 01:00:16;;;;;;;10.40;7.35;;;13.90;99.90;;;;;;5039844;28;20036;-62
2021/10/02 01:02:53;;;;;;;8.68;7.10;;;13.90;99.90;;;;;;5038349;28;20441;-62
2021/10/02 01:05:54;;;;;;;8.02;6.43;;;13.90;99.90;;;;;;5036952;28;20029;-62
2021/10/02 01:08:36;;;;;;;9.45;7.18;;;13.90;99.90;;;;;;5041263;28;20016;-62
2021/10/02 01:11:23;;;;;;;9.25;7.65;;;13.90;99.90;;;;;;5037088;28;20028;-62
2021/10/02 01:14:02;;;;;;;8.98;7.47;;;13.90;99.90;;;;;;5038256;28;20018;-62
2021/10/02 01:16:36;;;;;;;10.18;7.43;;;13.90;99.90;;;;;;5037558;28;20504;-62
2021/10/02 01:19:50;;;;;;;7.13;6.43;;;13.80;99.90;;;;;;5037512;28;20029;-62
2021/10/02 01:22:26;;;;;;;11.77;8.40;;;13.90;99.90;;;;;;5039406;28;20038;-62
2021/10/02 01:25:05;;;;;;;12.00;8.60;;;13.80;99.90;;;;;;5043799;28;20018;-62
2021/10/02 01:27:53;;;;;;;9.68;8.65;;;13.80;99.90;;;;;;5035380;28;20025;-62
2021/10/02 01:30:37;;;;;;;10.65;8.07;;;13.80;99.90;;;;;;5044280;28;20018;-62
2021/10/02 01:33:18;;;;;;;10.38;8.52;;;13.70;99.90;;;;;;5041046;28;20515;-62
2021/10/02 01:35:54;;;;;;;10.02;8.27;;;13.70;99.90;;;;;;5036666;28;20116;-62
2021/10/02 01:49:21;;;;;;;10.05;8.98;;;13.80;99.90;;;;;;5046384;28;20028;-62
2021/10/02 01:51:50;;;;;;;12.27;8.20;;;13.80;99.90;;;;;;5044532;28;20100;-62
2021/10/02 01:54:16;;;;;;;10.60;9.30;;;13.80;99.90;;;;;;5040434;28;20030;-62
2021/10/02 01:56:42;;;;;;;10.32;8.20;;;13.80;99.90;;;;;;5038069;28;20045;-62
2021/10/02 01:59:11;;;;;;;10.68;9.13;;;13.80;99.90;;;;;;5040799;28;20022;-62
2021/10/02 02:01:41;;;;;;;11.95;8.05;;;13.90;99.90;;;;;;5039837;28;20063;-62
2021/10/02 02:04:08;;;;;;;13.57;8.82;;;13.90;99.90;;;;;;5036491;28;20068;-62
2021/10/02 02:06:35;;;;;;;10.35;7.93;;;13.90;99.90;;;;;;5036795;28;20076;-62
2021/10/02 02:09:01;;;;;;;11.55;8.00;;;13.90;99.90;;;;;;5037500;28;20072;-62
2021/10/02 02:11:29;;;;;;;8.68;7.78;;;13.90;99.90;;;;;;5041868;28;20024;-62
2021/10/02 02:13:57;;;;;;;10.73;8.02;;;13.90;99.90;;;;;;5046691;28;20025;-62
2021/10/02 02:16:23;;;;;;;10.85;8.02;;;14.00;99.90;;;;;;5042418;28;20111;-62
2021/10/02 02:18:50;;;;;;;12.63;8.45;;;13.90;99.90;;;;;;5040724;28;20469;-62
2021/10/02 02:21:16;;;;;;;13.98;10.88;;;13.90;99.90;;;;;;5044295;28;20029;-62
2021/10/02 02:23:42;;;;;;;13.30;10.23;;;13.90;99.90;;;;;;5033513;28;20496;-62
2021/10/02 02:26:09;;;;;;;12.13;8.80;;;13.90;99.90;;;;;;5035004;28;20096;-63
2021/10/02 02:28:37;;;;;;;8.82;7.85;;;13.90;99.90;;;;;;5037501;28;20059;-63
2021/10/02 02:31:04;;;;;;;10.18;9.05;;;13.90;99.90;;;;;;5034373;28;20029;-63
2021/10/02 02:33:31;;;;;;;10.77;8.45;;;13.90;99.90;;;;;;5043923;28;20103;-62
2021/10/02 02:35:56;;;;;;;10.15;8.85;;;14.00;99.90;;;;;;5037254;28;20044;-62
2021/10/02 02:38:22;;;;;;;10.10;8.50;;;14.00;99.90;;;;;;5034081;28;20381;-62
2021/10/02 02:40:47;;;;;;;9.13;8.23;;;13.90;99.90;;;;;;5040834;28;20481;-62
2021/10/02 02:43:13;;;;;;;9.70;7.80;;;14.00;99.90;;;;;;5040325;28;20068;-62
2021/10/02 02:45:43;;;;;;;11.88;8.68;;;14.00;99.90;;;;;;5039704;28;20124;-62
2021/10/02 02:48:15;;;;;;;9.82;7.57;;;13.90;99.90;;;;;;5036751;28;20029;-62
2021/10/02 02:51:05;;;;;;;8.85;7.97;;;14.00;99.90;;;;;;5040491;28;20067;-62
2021/10/02 02:53:30;;;;;;;10.43;7.90;;;14.00;99.90;;;;;;5041084;28;20099;-62
2021/10/02 02:56:09;;;;;;;13.15;8.25;;;13.90;99.90;;;;;;5041707;28;21433;-62
2021/10/02 02:58:36;;;;;;;8.63;7.72;;;13.90;99.90;;;;;;5039128;28;20072;-62
2021/10/02 03:01:03;;;;;;;10.00;8.00;;;13.90;99.90;;;;;;5038902;28;20025;-62
2021/10/02 03:03:32;;;;;;;11.75;9.52;;;13.90;99.90;;;;;;5031562;28;20100;-62
2021/10/02 03:06:04;;;;;;;12.95;9.93;;;13.80;99.90;;;;;;5035919;28;20547;-62
2021/10/02 03:08:41;;;;;;;11.00;9.23;;;13.80;99.90;;;;;;5034597;28;20025;-62
2021/10/02 03:11:08;;;;;;;9.90;8.90;;;13.80;99.90;;;;;;5038509;28;20025;-62
2021/10/02 03:13:36;;;;;;;12.88;10.02;;;13.80;99.90;;;;;;5040074;28;20018;-62
2021/10/02 03:16:08;;;;;;;14.68;10.63;;;13.80;99.90;;;;;;5035990;28;20083;-62
2021/10/02 03:18:41;;;;;;;13.07;10.07;;;13.70;99.90;;;;;;5039515;28;20141;-62
2021/10/02 03:21:07;;;;;;;14.23;11.23;;;13.70;99.90;;;;;;5036614;28;20123;-62
2021/10/02 03:23:33;;;;;;;14.10;10.05;;;13.70;99.90;;;;;;5035839;28;20083;-62
2021/10/02 03:26:01;;;;;;;15.00;10.93;;;13.70;99.90;;;;;;5038494;28;20410;-62
2021/10/02 03:28:29;;;;;;;13.27;10.80;;;13.70;99.90;;;;;;5038653;28;20026;-62
2021/10/02 03:30:56;;;;;;;11.45;10.25;;;13.70;99.90;;;;;;5039788;28;20388;-62
2021/10/02 03:33:23;;;;;;;15.07;11.38;;;13.70;99.90;;;;;;5042599;28;20490;-62
2021/10/02 03:35:49;;;;;;;12.73;11.43;;;13.70;99.90;;;;;;5039334;28;20473;-62
2021/10/02 03:38:15;;;;;;;16.85;12.70;;;13.70;99.90;;;;;;5048050;28;20033;-62
2021/10/02 03:40:41;;;;;;;15.38;12.60;;;13.70;99.90;;;;;;5040391;28;20420;-62
2021/10/02 03:43:06;;;;;;;13.95;12.18;;;13.70;99.90;;;;;;5042925;28;20100;-62
2021/10/02 03:45:36;;;;;;;15.70;12.73;;;13.70;99.90;;;;;;5035187;28;20079;-62
2021/10/02 03:48:02;;;;;;;17.00;14.48;;;13.70;99.90;;;;;;5045666;28;20113;-62
2021/10/02 03:50:28;;;;;;;17.90;14.32;;;13.70;99.90;;;;;;5044270;28;20100;-62
2021/10/02 03:52:53;;;;;;;17.15;14.02;;;13.60;99.90;;;;;;5041471;28;20156;-62
2021/10/02 03:55:19;;;;;;;16.92;15.13;;;13.60;99.90;;;;;;5043630;28;20021;-62
2021/10/02 03:57:44;;;;;;;18.52;15.00;;;13.60;99.90;;;;;;5047660;28;20044;-62
2021/10/02 04:00:11;;;;;;;18.90;15.95;;;13.60;99.90;;;;;;5039307;28;20036;-62
2021/10/02 04:02:37;;;;;;;21.17;16.13;;;13.60;99.90;;;;;;5044343;28;20469;-62
2021/10/02 04:05:03;;;;;;;20.65;15.73;;;13.60;99.90;;;;;;5035816;28;20025;-62
2021/10/02 04:07:29;;;;;;;22.08;16.95;;;13.60;99.90;;;;;;5057307;28;20025;-62
2021/10/02 04:09:54;;;;;;;23.30;17.60;;;13.60;99.90;;;;;;5041293;28;20207;-62
2021/10/02 04:12:20;;;;;;;18.73;16.42;;;13.60;99.90;;;;;;5038399;28;20053;-63
2021/10/02 04:14:47;;;;;;;20.88;15.75;;;13.50;99.90;;;;;;5043146;28;20096;-62
2021/10/02 04:17:13;;;;;;;18.75;16.80;;;13.50;99.90;;;;;;5040478;28;20029;-62
2021/10/02 04:19:39;;;;;;;20.45;16.52;;;13.50;99.90;;;;;;5042602;28;20056;-62
2021/10/02 04:22:05;;;;;;;21.20;18.80;;;13.50;99.90;;;;;;5049134;28;20135;-62
2021/10/02 04:24:30;;;;;;;20.30;16.70;;;13.50;99.90;;;;;;5039521;28;20509;-62
2021/10/02 04:26:59;;;;;;;20.92;17.88;;;13.50;99.90;;;;;;5044203;28;20104;-62
2021/10/02 04:29:28;;;;;;;20.35;15.98;;;13.40;99.90;;;;;;5037854;28;20024;-62
2021/10/02 04:31:54;;;;;;;19.40;16.30;;;13.40;99.90;;;;;;5043111;28;20040;-62
2021/10/02 04:34:20;;;;;;;18.67;15.45;;;13.40;99.90;;;;;;5038639;28;20026;-62
2021/10/02 04:36:46;;;;;;;21.02;16.38;;;13.30;99.90;;;;;;5042252;28;20021;-63
2021/10/02 04:39:11;;;;;;;18.45;13.15;;;13.30;99.90;;;;;;5036700;28;20033;-62
2021/10/02 04:41:37;;;;;;;14.90;13.35;;;13.30;99.90;;;;;;5044829;28;20808;-62
2021/10/02 04:44:02;;;;;;;14.13;12.23;;;13.30;99.90;;;;;;5042085;28;20041;-62
2021/10/02 04:46:28;;;;;;;12.57;11.27;;;13.40;99.90;;;;;;5033962;28;20033;-62
2021/10/02 04:48:54;;;;;;;14.68;12.20;;;13.40;99.90;;;;;;5045252;28;20078;-62
2021/10/02 04:51:19;;;;;;;14.25;12.75;;;13.40;99.90;;;;;;5044384;28;20021;-62
2021/10/02 04:53:44;;;;;;;13.10;11.65;;;13.40;99.90;;;;;;5045909;28;20017;-62
2021/10/02 04:56:13;;;;;;;11.73;10.57;;;13.40;99.90;;;;;;5044906;28;20025;-62
2021/10/02 04:58:39;;;;;;;16.95;10.70;;;13.50;99.90;;;;;;5039194;28;20025;-62
2021/10/02 05:01:08;;;;;;;13.27;11.88;;;13.50;99.90;;;;;;5040345;28;20028;-62
2021/10/02 05:03:36;;;;;;;14.10;11.52;;;13.40;99.90;;;;;;5041198;28;20032;-62
2021/10/02 05:06:02;;;;;;;11.57;9.95;;;13.40;99.90;;;;;;5048427;28;20053;-62
2021/10/02 05:08:28;;;;;;;17.00;12.20;;;13.40;99.90;;;;;;5034391;28;20079;-62
2021/10/02 05:10:54;;;;;;;16.20;12.10;;;13.40;99.90;;;;;;5036681;28;20026;-62
2021/10/02 05:13:19;;;;;;;16.45;10.60;;;13.30;99.90;;;;;;5041546;28;20021;-62
2021/10/02 05:15:45;;;;;;;12.18;10.93;;;13.30;99.90;;;;;;5034332;28;20465;-62
2021/10/02 05:18:10;;;;;;;13.38;11.98;;;13.30;99.90;;;;;;5047749;28;20025;-62
2021/10/02 05:20:36;;;;;;;12.00;10.75;;;13.30;99.90;;;;;;5039935;28;20108;-62
2021/10/02 05:23:02;;;;;;;11.70;10.50;;;13.30;99.90;;;;;;5042099;28;20026;-62
2021/10/02 05:25:27;;;;;;;11.60;10.32;;;13.30;99.90;;;;;;5035265;28;20025;-62
2021/10/02 05:27:53;;;;;;;13.82;10.70;;;13.30;99.90;;;;;;5044005;28;20028;-62
2021/10/02 05:30:18;;;;;;;13.07;11.20;;;13.30;99.90;;;;;;5035722;28;20100;-62
2021/10/02 05:32:44;;;;;;;12.13;9.75;;;13.30;99.90;;;;;;5045252;28;20061;-62
2021/10/02 05:35:10;;;;;;;13.15;10.27;;;13.30;99.90;;;;;;5043236;28;20021;-62
2021/10/02 05:37:35;;;;;;;15.50;11.75;;;13.30;99.90;;;;;;5044792;28;20411;-62
2021/10/02 05:40:02;;;;;;;12.75;11.40;;;13.30;99.90;;;;;;5044791;28;20026;-62
2021/10/02 05:42:27;;;;;;;17.75;11.00;;;13.30;99.90;;;;;;5036436;28;20040;-62
2021/10/02 05:44:53;;;;;;;14.20;12.55;;;13.30;99.90;;;;;;5040483;28;20041;-62
2021/10/02 05:47:19;;;;;;;14.50;10.85;;;13.30;99.90;;;;;;5037585;28;20033;-62
2021/10/02 05:49:44;;;;;;;14.27;11.77;;;13.30;99.90;;;;;;5043281;28;20022;-62
2021/10/02 05:52:10;;;;;;;12.88;10.60;;;13.30;99.90;;;;;;5050866;28;20029;-62
2021/10/02 05:54:37;;;;;;;13.55;11.75;;;13.30;99.90;;;;;;5035811;28;20025;-62
2021/10/02 05:57:02;;;;;;;15.50;11.65;;;13.30;99.90;;;;;;5045036;28;20049;-62
2021/10/02 05:59:28;;;;;;;14.52;12.73;;;13.30;99.90;;;;;;5034412;28;20060;-62
2021/10/02 06:01:54;;;;;;;16.88;13.07;;;13.30;99.90;;;;;;5032913;28;20028;-62
2021/10/02 06:04:19;;;;;;;20.15;15.00;;;13.30;99.90;;;;;;5047138;28;20036;-62
2021/10/02 06:06:45;;;;;;;15.88;13.43;;;13.30;99.90;;;;;;5033724;28;20026;-62
2021/10/02 06:09:10;;;;;;;15.63;13.07;;;13.30;99.90;;;;;;5046435;28;20024;-62
2021/10/02 06:11:36;;;;;;;14.43;12.25;;;13.30;99.90;;;;;;5039077;28;20021;-62
2021/10/02 06:14:01;;;;;;;16.63;13.45;;;13.30;99.90;;;;;;5053151;28;20390;-62
2021/10/02 06:16:27;;;;;;;18.50;13.38;;;13.40;99.90;;;;;;5049320;28;20092;-62
2021/10/02 06:18:53;;;;;;;19.13;14.52;;;13.40;99.90;;;;;;5041295;28;20031;-62
2021/10/02 06:21:18;;;;;;;18.15;13.75;;;13.30;99.90;;;;;;5052483;28;20447;-62
2021/10/02 06:23:44;;;;;;;17.05;14.35;;;13.40;99.90;;;;;;5046474;28;20025;-62
2021/10/02 06:26:10;;;;;;;18.02;13.98;;;13.40;99.90;;;;;;5033354;28;20041;-62
2021/10/02 06:28:36;;;;;;;22.52;15.60;;;13.40;99.90;;;;;;5046534;28;20021;-62
2021/10/02 06:31:02;;;;;;;20.08;15.63;;;13.40;99.90;;;;;;5032961;28;20091;-62
2021/10/02 06:33:29;;;;;;;16.63;14.00;;;13.40;99.90;;;;;;5015129;28;20021;-62
2021/10/02 06:35:54;;;;;;;20.98;15.05;;;13.40;99.90;;;;;;5032854;28;20032;-62
2021/10/02 06:38:20;;;;;;;15.57;12.98;;;13.40;99.90;;;;;;5033376;28;20386;-62
2021/10/02 06:40:46;;;;;;;20.65;15.48;;;13.40;99.90;;;;;;5035595;28;20112;-62
2021/10/02 06:43:12;;;;;;;20.35;15.02;;;13.50;99.90;;;;;;5047075;28;20025;-62
2021/10/02 06:45:38;;;;;;;19.90;15.68;;;13.50;99.90;;;;;;5051838;28;20043;-62
2021/10/02 06:48:04;;;;;;;21.15;17.73;;;13.50;99.90;;;;;;5051843;28;20539;-62
2021/10/02 06:50:31;;;;;;;21.45;15.13;;;13.40;99.90;;;;;;5052017;28;20108;-62
2021/10/02 06:52:57;;;;;;;18.73;15.52;;;13.40;99.90;;;;;;5046867;28;20029;-62
2021/10/02 06:55:23;;;;;;;17.25;15.40;;;13.40;99.90;;;;;;5032831;28;20091;-62
2021/10/02 06:57:48;;;;;;;17.10;15.15;;;13.40;99.90;;;;;;5032337;28;20436;-62
2021/10/02 07:00:14;;;;;;;19.63;16.35;;;13.40;99.90;;;;;;5040528;28;20052;-62
2021/10/02 07:02:44;;;;;;;17.13;14.73;;;13.40;99.90;;;;;;5052631;28;20029;-62
2021/10/02 07:05:12;;;;;;;17.10;14.32;;;13.40;99.90;;;;;;5052286;28;20494;-62
2021/10/02 07:07:40;;;;;;;16.85;14.13;;;13.40;99.90;;;;;;5049566;28;20497;-62
2021/10/02 07:10:06;;;;;;;18.23;14.93;;;13.50;99.90;;;;;;5045628;28;20017;-62
2021/10/02 07:12:32;;;;;;;17.25;14.98;;;13.50;99.90;;;;;;5047387;28;20017;-62
2021/10/02 07:14:58;;;;;;;20.05;14.05;;;13.50;99.90;;;;;;5051572;28;20028;-62
2021/10/02 07:17:23;;;;;;;19.98;15.68;;;13.40;99.90;;;;;;5051835;28;20033;-62
2021/10/02 07:19:49;;;;;;;20.90;15.00;;;13.50;99.90;;;;;;5050495;28;20017;-62
2021/10/02 07:22:14;;;;;;;18.50;16.08;;;13.40;99.90;;;;;;5043412;28;20040;-62
2021/10/02 07:24:40;;;;;;;18.60;14.73;;;13.50;99.90;;;;;;5044318;28;20033;-62
2021/10/02 07:27:05;;;;;;;20.33;14.50;;;13.50;99.90;;;;;;5048535;28;20370;-62
2021/10/02 07:29:31;;;;;;;17.15;14.30;;;13.50;99.90;;;;;;5046115;28;20044;-62
2021/10/02 07:31:56;;;;;;;16.25;14.15;;;13.60;99.90;;;;;;5041166;28;20036;-62
2021/10/02 07:34:22;;;;;;;16.10;13.30;;;13.60;99.90;;;;;;5044202;28;20028;-62
2021/10/02 07:36:48;;;;;;;21.48;14.10;;;13.60;99.90;;;;;;5044792;28;20106;-62
2021/10/02 07:39:13;;;;;;;17.27;14.50;;;13.60;99.90;;;;;;5039586;28;20013;-62
2021/10/02 07:41:44;;;;;;;17.83;13.38;;;13.60;99.90;;;;;;5044977;28;20052;-62
2021/10/02 07:44:11;;;;;;;15.00;11.85;;;13.70;99.90;;;;;;5032247;28;20108;-62
2021/10/02 07:46:46;;;;;;;18.67;14.02;;;13.70;99.90;;;;;;5041578;28;20028;-62
2021/10/02 07:49:11;;;;;;;14.63;13.05;;;13.70;99.90;;;;;;5049242;28;20029;-62
2021/10/02 07:51:38;;;;;;;19.50;14.32;;;13.80;99.90;;;;;;5042814;28;20048;-62
2021/10/02 07:54:05;;;;;;;16.92;13.05;;;13.80;99.90;;;;;;5032983;28;20096;-62
2021/10/02 07:56:34;;;;;;;16.70;12.23;;;13.80;99.90;;;;;;5051560;28;20416;-62
2021/10/02 07:59:05;;;;;;;18.65;14.05;;;13.80;99.90;;;;;;5050743;28;21054;-62
2021/10/02 08:01:31;;;;;;;19.48;14.50;;;13.90;99.90;;;;;;5045597;28;20028;-62
2021/10/02 08:03:56;;;;;;;17.48;13.30;;;14.00;99.90;;;;;;5045310;28;20021;-62
2021/10/02 08:06:22;;;;;;;15.25;12.88;;;14.00;99.90;;;;;;5047280;28;20087;-63
2021/10/02 08:08:50;;;;;;;13.98;12.32;;;14.00;99.90;;;;;;5043575;28;20245;-62
2021/10/02 08:11:15;;;;;;;16.00;12.40;;;14.10;99.90;;;;;;5046424;28;20017;-62
2021/10/02 08:13:41;;;;;;;14.57;11.48;;;14.20;99.90;;;;;;5052197;28;20029;-62
2021/10/02 08:16:07;;;;;;;13.90;11.88;;;14.20;99.90;;;;;;5046265;28;20083;-62
2021/10/02 08:18:38;;;;;;;13.85;11.60;;;14.30;99.90;;;;;;5053649;28;20508;-62
2021/10/02 08:21:06;;;;;;;16.92;11.80;;;14.40;99.90;;;;;;5050402;28;20060;-62
2021/10/02 08:23:37;;;;;;;15.23;11.50;;;14.40;99.90;;;;;;5049247;28;20032;-62
2021/10/02 08:27:15;;;;;;;15.07;12.43;;;14.40;99.90;;;;;;5044893;28;20473;-61
2021/10/02 08:29:15;;;;;;;14.23;11.13;;;14.50;99.90;;;;;;5043123;28;20036;-62
2021/10/02 08:31:41;;;;;;;14.55;11.68;;;14.50;99.90;;;;;;5040670;28;20029;-62
2021/10/02 08:34:07;;;;;;;15.48;10.40;;;14.50;99.90;;;;;;5050837;28;20386;-63
2021/10/02 08:36:32;;;;;;;12.23;9.27;;;14.50;99.80;;;;;;5035641;28;20112;-62
2021/10/02 08:39:28;;;;;;;;;;;;;;;;;;;;;
2021/10/02 08:42:02;;;;;;;11.25;9.13;;;14.60;99.50;;;;;;5041354;28;20033;-62
2021/10/02 08:44:29;;;;;;;11.55;10.35;;;14.70;99.50;;;;;;5043810;28;20056;-63
2021/10/02 08:46:55;;;;;;;13.77;9.63;;;14.80;99.50;;;;;;5054752;28;20021;-62
2021/10/02 08:49:48;;;;;;;12.50;9.45;;;14.80;99.20;;;;;;5041903;28;20068;-62
2021/10/02 08:52:44;;;;;;;;;;;;;;;;;;;;;
2021/10/02 08:55:18;;;;;;;12.05;9.60;;;14.80;99.00;;;;;;5035047;28;20026;-62
2021/10/02 08:57:44;;;;;;;11.23;9.50;;;14.80;99.10;;;;;;5036452;28;20075;-62
2021/10/02 09:00:13;;;;;;;15.82;9.85;;;14.70;99.00;;;;;;5050940;28;20033;-62
2021/10/02 09:02:39;;;;;;;13.45;8.85;;;14.70;99.10;;;;;;5048156;28;20017;-62
2021/10/02 09:05:08;;;;;;;14.40;8.52;;;14.70;99.30;;;;;;5051288;28;20026;-62
2021/10/02 09:07:34;;;;;;;;;;;14.80;99.20;;;;;;5052501;28;20451;-62
2021/10/02 09:10:16;;;;;;;12.70;7.78;;;14.90;99.20;;;;;;5047438;28;20004;-62
2021/10/02 09:12:55;;;;;;;8.85;7.95;;;14.90;99.00;;;;;;5034593;28;20021;-62
2021/10/02 09:15:21;;;;;;;8.70;7.45;;;15.10;99.00;;;;;;5045207;28;20031;-62
2021/10/02 09:17:46;;;;;;;12.02;8.57;;;15.20;98.90;;;;;;5048873;28;20035;-62
2021/10/02 09:20:20;;;;;;;11.75;6.40;;;15.30;98.30;;;;;;5052992;28;20100;-62
2021/10/02 09:22:52;;;;;;;9.88;6.97;;;15.30;98.00;;;;;;5049834;28;20554;-63
2021/10/02 09:25:18;;;;;;;10.73;7.43;;;15.30;98.20;;;;;;5045661;28;20025;-62
2021/10/02 09:27:43;;;;;;;14.57;7.15;;;15.30;98.60;;;;;;5053202;28;20071;-62
2021/10/02 09:30:11;;;;;;;12.73;7.18;;;15.30;98.50;;;;;;5052942;28;20535;-62
2021/10/02 09:32:43;;;;;;;11.93;6.85;;;15.30;98.60;;;;;;5053022;28;20021;-62
2021/10/02 09:35:14;;;;;;;9.90;6.20;;;15.30;98.50;;;;;;5052718;28;20098;-62
2021/10/02 09:37:46;;;;;;;9.40;6.53;;;15.30;98.40;;;;;;5048265;28;20033;-63
2021/10/02 09:40:19;;;;;;;7.93;5.45;;;15.40;98.50;;;;;;5046366;28;20482;-62
2021/10/02 09:43:00;;;;;;;8.77;5.43;;;15.50;98.30;;;;;;5033896;28;20041;-62
2021/10/02 09:45:38;;;;;;;9.40;4.65;;;15.50;98.40;;;;;;5041012;28;20099;-62
2021/10/02 09:48:10;;;;;;;8.82;4.55;;;15.60;98.00;;;;;;5049309;28;20082;-62
2021/10/02 09:50:38;;;;;;;7.30;4.55;;;15.50;97.60;;;;;;5042752;28;20423;-62
2021/10/02 09:53:06;;;;;;;6.38;3.97;;;15.50;98.00;;;;;;5052105;28;20104;-62
2021/10/02 09:58:28;;;;;;;6.18;3.15;;;15.80;97.60;;;;;;5032027;28;20421;-62
2021/10/02 10:00:55;;;;;;;7.43;3.20;;;15.90;96.20;;;;;;5047587;28;20424;-62
2021/10/02 10:03:22;;;;;;;10.20;3.17;;;15.90;95.80;;;;;;5049294;28;20091;-62
2021/10/02 10:05:53;;;;;;;7.78;3.42;;;15.80;96.10;;;;;;5043401;28;20386;-62
2021/10/02 10:11:52;;;;;;;6.53;3.08;;;16.10;96.40;;;;;;5033343;28;20026;-63
2021/10/02 10:14:24;;;;;;;4.53;2.83;;;16.20;95.90;;;;;;5043069;28;20041;-62
2021/10/02 10:16:52;;;;;;;6.70;3.88;;;16.10;95.80;;;;;;5038731;28;20082;-62
2021/10/02 10:19:19;;;;;;;6.97;3.35;;;16.10;96.00;;;;;;5048855;28;20048;-62
2021/10/02 10:21:45;;;;;;;6.95;3.60;;;16.20;95.90;;;;;;5034066;28;20101;-62
2021/10/02 10:24:20;;;;;;;5.80;2.70;;;16.20;95.80;;;;;;5045789;28;20100;-62
2021/10/02 10:26:45;;;;;;;6.82;2.40;;;16.50;95.40;;;;;;5046587;28;20127;-63
2021/10/02 10:29:11;;;;;;;5.63;2.05;;;17.70;94.20;;;;;;5045903;28;20085;-62
2021/10/02 10:31:37;;;;;;;3.65;1.40;;;18.60;91.60;;;;;;5033297;28;20057;-62
2021/10/02 10:34:04;;;;;;;3.13;2.03;;;19.00;90.10;;;;;;5032661;28;20045;-62
2021/10/02 10:36:32;;;;;;;2.42;1.25;;;18.60;88.80;;;;;;5033119;28;20029;-62
2021/10/02 10:38:57;;;;;;;2.45;1.45;;;18.00;90.30;;;;;;5049462;28;20446;-62
2021/10/02 10:41:44;;;;;;;;;;;;;;;;;;;;;
2021/10/02 10:44:10;;;;;;;4.55;1.60;;;18.10;90.80;;;;;;5040992;28;20064;-62
2021/10/02 10:46:36;;;;;;;2.60;1.08;;;18.00;89.90;;;;;;5036008;28;20111;-62
2021/10/02 10:49:03;;;;;;;4.95;1.38;;;18.10;89.60;;;;;;5052672;28;20104;-62
2021/10/02 10:51:29;;;;;;;3.85;1.35;;;18.10;89.20;;;;;;5036766;28;20034;-62
2021/10/02 10:53:56;;;;;;;2.47;1.20;;;17.80;90.50;;;;;;5046953;28;20025;-62
2021/10/02 10:57:02;;;;;;;3.95;1.98;;;17.50;91.00;;;;;;5032954;28;20052;-62
2021/10/02 10:59:47;;;;;;;2.75;1.30;;;17.20;91.50;;;;;;5032796;28;20025;-63
2021/10/02 11:02:41;;;;;;;2.67;1.33;;;16.90;92.10;;;;;;5050150;28;20492;-62
2021/10/02 11:05:39;;;;;;;2.53;1.45;;;16.80;92.40;;;;;;5048742;28;20029;-62
2021/10/02 11:08:13;;;;;;;2.63;1.40;;;16.70;93.10;;;;;;5046796;28;20502;-62
2021/10/02 11:10:42;;;;;;;4.05;1.60;;;16.70;93.00;;;;;;5046458;28;20017;-63
2021/10/02 11:13:13;;;;;;;3.53;1.92;;;16.60;93.10;;;;;;5048820;28;20017;-62
2021/10/02 11:16:04;;;;;;;3.55;1.67;;;16.50;93.10;;;;;;5048893;28;20107;-62
2021/10/02 11:18:45;;;;;;;4.03;1.80;;;16.50;93.40;;;;;;5051903;28;20554;-62
2021/10/02 11:21:13;;;;;;;4.20;2.17;;;16.40;93.40;;;;;;5047633;28;20029;-62
2021/10/02 11:23:39;;;;;;;3.28;2.30;;;16.30;93.70;;;;;;5032437;28;20025;-62
2021/10/02 11:26:18;;;;;;;3.60;1.75;;;16.40;93.90;;;;;;5049934;28;20040;-62
2021/10/02 11:28:44;;;;;;;2.60;1.90;;;16.40;93.80;;;;;;5050463;28;20064;-62
2021/10/02 11:31:17;;;;;;;2.47;1.98;;;16.40;94.10;;;;;;5035452;28;20485;-62
2021/10/02 11:34:19;;;;;;;4.28;1.70;;;16.50;94.20;;;;;;5031911;28;20555;-62
2021/10/02 11:37:03;;;;;;;4.05;1.83;;;16.70;94.30;;;;;;5032613;28;20030;-62
2021/10/02 11:39:31;;;;;;;3.72;1.60;;;16.60;93.50;;;;;;5031614;28;20059;-62
2021/10/02 11:42:00;;;;;;;2.70;1.50;;;16.70;93.80;;;;;;5050979;28;20385;-62
2021/10/02 11:44:44;;;;;;;2.90;1.42;;;16.90;93.80;;;;;;5050115;28;20168;-63
2021/10/02 11:47:35;;;;;;;3.00;1.90;;;17.00;93.20;;;;;;5053842;28;20497;-62
2021/10/02 11:50:29;;;;;;;4.70;1.77;;;17.00;93.20;;;;;;5050925;28;20025;-62
2021/10/02 11:53:00;;;;;;;3.03;1.38;;;17.80;92.60;;;;;;5048911;28;20428;-62
2021/10/02 11:55:35;;;;;;;2.33;1.27;;;18.00;91.70;;;;;;5041701;28;20033;-63
2021/10/02 11:58:16;;;;;;;2.70;1.48;;;17.90;91.60;;;;;;5034053;28;20500;-62
2021/10/02 12:01:16;;;;;;;3.25;1.30;;;17.70;91.50;;;;;;5050439;28;20043;-62
2021/10/02 12:03:42;;;;;;;3.20;1.42;;;17.50;91.90;;;;;;5036193;28;20045;-63
2021/10/02 12:06:07;;;;;;;3.53;1.25;;;17.50;92.20;;;;;;5059469;28;20116;-62
2021/10/02 12:08:33;;;;;;;2.67;1.30;;;17.60;92.40;;;;;;5057445;28;20070;-62
2021/10/02 12:11:13;;;;;;;5.03;1.20;;;18.10;91.00;;;;;;5042217;28;20469;-62
2021/10/02 12:13:51;;;;;;;3.40;1.50;;;18.40;90.30;;;;;;5064272;28;20032;-63
2021/10/02 12:20:40;;;;;;;3.60;1.10;;;18.40;89.60;;;;;;5002194;28;20081;-62
2021/10/02 12:23:08;;;;;;;3.05;1.60;;;18.00;89.30;;;;;;4982264;28;20159;-62
2021/10/02 12:25:34;;;;;;;4.00;1.35;;;17.70;90.80;;;;;;5057076;28;20047;-62
2021/10/02 12:28:21;;;;;;;2.35;1.25;;;17.60;91.00;;;;;;5047088;28;20025;-62
2021/10/02 12:30:52;;;;;;;3.15;1.00;;;17.60;91.20;;;;;;5039475;28;20028;-63
2021/10/02 12:33:41;;;;;;;1.75;1.02;;;17.40;90.80;;;;;;5053012;28;20051;-63
2021/10/02 12:36:07;;;;;;;2.15;1.10;;;17.30;91.00;;;;;;5046348;28;20052;-63
2021/10/02 12:38:40;;;;;;;3.85;1.10;;;17.20;91.80;;;;;;5046710;28;20107;-62
2021/10/02 12:41:06;;;;;;;4.43;1.63;;;17.20;92.10;;;;;;5042653;28;20495;-63
2021/10/02 12:43:32;;;;;;;2.58;1.25;;;17.10;92.20;;;;;;5041649;28;20064;-62
2021/10/02 12:45:58;;;;;;;1.88;1.20;;;17.10;92.40;;;;;;5052385;28;20056;-62
2021/10/02 12:48:24;;;;;;;3.35;1.40;;;17.20;92.60;;;;;;5060004;28;20033;-62
2021/10/02 12:50:50;;;;;;;3.65;1.52;;;17.10;92.40;;;;;;5050379;28;20052;-62
2021/10/02 12:53:19;;;;;;;3.03;1.67;;;17.10;92.50;;;;;;5047941;28;20033;-62
2021/10/02 12:55:45;;;;;;;2.10;1.27;;;17.10;92.50;;;;;;5063695;28;20543;-62
2021/10/02 12:58:15;;;;;;;3.15;1.20;;;17.10;92.70;;;;;;5050393;28;20128;-63
2021/10/02 13:00:41;;;;;;;2.70;1.08;;;17.30;92.50;;;;;;5054610;28;20449;-62
2021/10/02 13:03:09;;;;;;;1.92;1.23;;;17.40;92.20;;;;;;5045572;28;20480;-62
2021/10/02 13:05:38;;;;;;;3.28;1.30;;;17.50;92.20;;;;;;5051642;28;20502;-62
2021/10/02 13:08:07;;;;;;;;;;;17.50;92.10;;;;;;5053355;28;20029;-62
2021/10/02 13:10:33;;;;;;;2.92;0.90;;;17.50;92.30;;;;;;5053230;28;19905;-62
2021/10/02 13:13:02;;;;;;;3.28;0.90;;;17.60;91.90;;;;;;5053454;28;20013;-62
2021/10/02 13:15:40;;;;;;;1.98;0.80;;;17.60;92.00;;;;;;5022776;28;20025;-63
2021/10/02 13:18:21;;;;;;;0.98;0.60;;;17.70;91.70;;;;;;5021329;28;20043;-62
2021/10/02 13:20:47;;;;;;;2.60;0.77;;;17.60;91.60;;;;;;5041724;28;20039;-62
2021/10/02 13:23:19;;;;;;;1.05;0.95;;;17.50;91.60;;;;;;5052966;28;20472;-62
2021/10/02 13:25:57;;;;;;;2.28;0.93;;;17.50;91.60;;;;;;5020952;28;20378;-63
2021/10/02 13:28:49;;;;;;;1.40;0.80;;;17.40;91.80;;;;;;5026107;28;20115;-62
2021/10/02 13:31:14;;;;;;;1.85;1.00;;;17.40;92.00;;;;;;5034228;28;20033;-63
2021/10/02 13:34:09;;;;;;;0.95;0.63;;;17.30;92.10;;;;;;5021092;28;20083;-63
2021/10/02 13:36:38;;;;;;;1.67;0.80;;;17.40;92.50;;;;;;5027844;28;20496;-62
2021/10/02 13:39:07;;;;;;;2.00;0.80;;;17.40;92.40;;;;;;5051333;28;20056;-62
2021/10/02 13:41:33;;;;;;;;;;;17.40;92.60;;;;;;5047396;28;20120;-62
2021/10/02 13:44:02;;;;;;;2.35;0.75;;;17.40;92.50;;;;;;5053923;28;19992;-62
2021/10/02 13:46:39;;;;;;;2.17;0.70;;;17.40;92.70;;;;;;5055291;28;20052;-62
2021/10/02 13:49:07;;;;;;;1.70;0.80;;;17.40;92.80;;;;;;5049671;28;20488;-62
2021/10/02 13:51:34;;;;;;;1.52;0.77;;;17.40;92.50;;;;;;5038352;28;20552;-62
2021/10/02 13:53:59;;;;;;;1.55;0.80;;;17.40;92.60;;;;;;5050862;28;20049;-62
2021/10/02 13:56:38;;;;;;;1.70;1.00;;;17.40;92.90;;;;;;5052353;28;20049;-63